sensor_id;sensor_type;location;lat;lon;timestamp;pressure;altitude;pressure_sealevel;temperature;humidity
23677;BME280;31493;49.058;12.190;2022-09-27T00:00:10;94478.88;;;10.47;95.77
23677;BME280;31493;49.058;12.190;2022-09-27T00:02:38;94477.41;;;10.44;96.14
23677;BME280;31493;49.058;12.190;2022-09-27T00:05:05;94474.69;;;10.46;96.22
23677;BME280;31493;49.058;12.190;2022-09-27T00:07:33;94463.41;;;10.37;96.09
23677;BME280;31493;49.058;12.190;2022-09-27T00:10:00;94466.75;;;10.57;96.67
23677;BME280;31493;49.058;12.190;2022-09-27T00:12:28;94469.50;;;10.46;96.17
23677;BME280;31493;49.058;12.190;2022-09-27T00:14:56;94472.59;;;10.49;96.14
23677;BME280;31493;49.058;12.190;2022-09-27T00:17:24;94467.88;;;10.45;96.69
23677;BME280;31493;49.058;12.190;2022-09-27T00:19:52;94461.59;;;10.47;96.37
23677;BME280;31493;49.058;12.190;2022-09-27T00:22:20;94459.97;;;10.46;98.28
23677;BME280;31493;49.058;12.190;2022-09-27T00:24:48;94450.09;;;10.32;99.75
23677;BME280;31493;49.058;12.190;2022-09-27T00:27:15;94450.34;;;10.29;100.00
23677;BME280;31493;49.058;12.190;2022-09-27T00:29:42;94457.03;;;10.12;100.00
23677;BME280;31493;49.058;12.190;2022-09-27T00:32:11;94453.75;;;10.30;100.00
23677;BME280;31493;49.058;12.190;2022-09-27T00:34:39;94444.63;;;10.35;100.00
23677;BME280;31493;49.058;12.190;2022-09-27T00:37:06;94443.28;;;10.21;100.00
23677;BME280;31493;49.058;12.190;2022-09-27T00:39:33;94436.09;;;10.25;100.00
23677;BME280;31493;49.058;12.190;2022-09-27T00:42:00;94436.47;;;10.30;99.96
23677;BME280;31493;49.058;12.190;2022-09-27T00:47:40;94419.97;;;10.41;99.21
23677;BME280;31493;49.058;12.190;2022-09-27T00:50:18;94419.06;;;10.32;99.13
23677;BME280;31493;49.058;12.190;2022-09-27T00:52:50;94413.44;;;10.37;98.83
23677;BME280;31493;49.058;12.190;2022-09-27T00:55:23;94418.50;;;10.29;100.00
23677;BME280;31493;49.058;12.190;2022-09-27T00:57:53;94420.00;;;10.21;100.00
23677;BME280;31493;49.058;12.190;2022-09-27T01:00:21;94396.72;;;10.21;100.00
23677;BME280;31493;49.058;12.190;2022-09-27T01:02:52;94414.56;;;10.25;100.00
23677;BME280;31493;49.058;12.190;2022-09-27T01:05:23;94409.03;;;10.10;100.00
23677;BME280;31493;49.058;12.190;2022-09-27T01:07:50;94409.84;;;10.10;100.00
23677;BME280;31493;49.058;12.190;2022-09-27T01:10:22;94406.69;;;10.16;100.00
23677;BME280;31493;49.058;12.190;2022-09-27T01:12:57;94402.09;;;10.10;100.00
23677;BME280;31493;49.058;12.190;2022-09-27T01:15:30;94399.09;;;10.05;100.00
23677;BME280;31493;49.058;12.190;2022-09-27T01:18:13;94400.69;;;10.16;100.00
23677;BME280;31493;49.058;12.190;2022-09-27T01:20:58;94398.28;;;10.05;100.00
23677;BME280;31493;49.058;12.190;2022-09-27T01:23:47;94388.81;;;9.95;100.00
23677;BME280;31493;49.058;12.190;2022-09-27T01:26:31;94384.31;;;9.98;100.00
23677;BME280;31493;49.058;12.190;2022-09-27T01:29:06;94388.94;;;9.94;100.00
23677;BME280;31493;49.058;12.190;2022-09-27T01:31:42;94394.25;;;9.92;100.00
23677;BME280;31493;49.058;12.190;2022-09-27T01:34:21;94387.31;;;9.93;100.00
23677;BME280;31493;49.058;12.190;2022-09-27T01:36:52;94391.94;;;9.89;100.00
23677;BME280;31493;49.058;12.190;2022-09-27T01:39:29;94392.22;;;9.86;100.00
23677;BME280;31493;49.058;12.190;2022-09-27T01:42:05;94384.06;;;9.91;100.00
23677;BME280;31493;49.058;12.190;2022-09-27T01:44:36;94385.69;;;9.92;100.00
23677;BME280;31493;49.058;12.190;2022-09-27T01:47:11;94380.91;;;9.87;100.00
23677;BME280;31493;49.058;12.190;2022-09-27T01:49:48;94389.75;;;9.94;100.00
23677;BME280;31493;49.058;12.190;2022-09-27T01:52:22;94384.47;;;9.86;100.00
23677;BME280;31493;49.058;12.190;2022-09-27T01:54:55;94375.50;;;9.90;100.00
23677;BME280;31493;49.058;12.190;2022-09-27T01:57:26;94363.78;;;9.86;100.00
23677;BME280;31493;49.058;12.190;2022-09-27T01:59:58;94365.72;;;9.84;100.00
23677;BME280;31493;49.058;12.190;2022-09-27T02:02:30;94366.41;;;9.77;100.00
23677;BME280;31493;49.058;12.190;2022-09-27T02:05:02;94355.28;;;9.76;100.00
23677;BME280;31493;49.058;12.190;2022-09-27T02:07:36;94361.25;;;9.77;100.00
23677;BME280;31493;49.058;12.190;2022-09-27T02:10:09;94357.72;;;9.68;100.00
23677;BME280;31493;49.058;12.190;2022-09-27T02:12:45;94361.50;;;9.74;100.00
23677;BME280;31493;49.058;12.190;2022-09-27T02:15:14;94353.53;;;9.57;100.00
23677;BME280;31493;49.058;12.190;2022-09-27T02:17:46;94356.00;;;9.59;100.00
23677;BME280;31493;49.058;12.190;2022-09-27T02:20:26;94354.47;;;9.66;100.00
23677;BME280;31493;49.058;12.190;2022-09-27T02:23:01;94346.16;;;9.62;100.00
23677;BME280;31493;49.058;12.190;2022-09-27T02:25:39;94341.16;;;9.51;100.00
23677;BME280;31493;49.058;12.190;2022-09-27T02:28:16;94346.06;;;9.54;100.00
23677;BME280;31493;49.058;12.190;2022-09-27T02:30:45;94336.84;;;9.52;100.00
23677;BME280;31493;49.058;12.190;2022-09-27T02:33:14;94342.53;;;9.55;100.00
23677;BME280;31493;49.058;12.190;2022-09-27T02:35:41;94344.28;;;9.55;100.00
23677;BME280;31493;49.058;12.190;2022-09-27T02:38:09;94332.22;;;9.46;100.00
23677;BME280;31493;49.058;12.190;2022-09-27T02:40:43;94338.47;;;9.53;100.00
23677;BME280;31493;49.058;12.190;2022-09-27T02:43:12;94335.34;;;9.49;100.00
23677;BME280;31493;49.058;12.190;2022-09-27T02:45:41;94335.31;;;9.59;100.00
23677;BME280;31493;49.058;12.190;2022-09-27T02:48:18;94342.66;;;9.54;100.00
23677;BME280;31493;49.058;12.190;2022-09-27T02:53:55;94336.69;;;9.53;100.00
23677;BME280;31493;49.058;12.190;2022-09-27T02:56:34;94316.03;;;9.43;100.00
23677;BME280;31493;49.058;12.190;2022-09-27T02:59:11;94318.63;;;9.43;100.00
23677;BME280;31493;49.058;12.190;2022-09-27T03:01:48;94330.31;;;9.48;100.00
23677;BME280;31493;49.058;12.190;2022-09-27T03:04:25;94334.94;;;9.44;100.00
23677;BME280;31493;49.058;12.190;2022-09-27T03:06:57;94330.06;;;9.41;100.00
23677;BME280;31493;49.058;12.190;2022-09-27T03:09:28;94329.25;;;9.40;100.00
23677;BME280;31493;49.058;12.190;2022-09-27T03:11:56;94319.72;;;9.31;100.00
23677;BME280;31493;49.058;12.190;2022-09-27T03:14:23;94316.06;;;9.34;100.00
23677;BME280;31493;49.058;12.190;2022-09-27T03:16:50;94321.34;;;9.32;100.00
23677;BME280;31493;49.058;12.190;2022-09-27T03:19:17;94322.47;;;9.30;100.00
23677;BME280;31493;49.058;12.190;2022-09-27T03:21:45;94306.97;;;9.30;100.00
23677;BME280;31493;49.058;12.190;2022-09-27T03:24:13;94311.44;;;9.37;100.00
23677;BME280;31493;49.058;12.190;2022-09-27T03:26:40;94306.97;;;9.30;100.00
23677;BME280;31493;49.058;12.190;2022-09-27T03:29:07;94309.00;;;9.36;100.00
23677;BME280;31493;49.058;12.190;2022-09-27T03:31:34;94302.75;;;9.29;100.00
23677;BME280;31493;49.058;12.190;2022-09-27T03:34:01;94304.53;;;9.28;100.00
23677;BME280;31493;49.058;12.190;2022-09-27T03:36:28;94301.13;;;9.28;100.00
23677;BME280;31493;49.058;12.190;2022-09-27T03:38:56;94297.59;;;9.29;100.00
23677;BME280;31493;49.058;12.190;2022-09-27T03:41:23;94300.69;;;9.32;100.00
23677;BME280;31493;49.058;12.190;2022-09-27T03:43:50;94290.41;;;9.23;100.00
23677;BME280;31493;49.058;12.190;2022-09-27T03:46:17;94287.78;;;9.32;100.00
23677;BME280;31493;49.058;12.190;2022-09-27T03:48:44;94290.13;;;9.26;100.00
23677;BME280;31493;49.058;12.190;2022-09-27T03:51:11;94294.06;;;9.30;100.00
23677;BME280;31493;49.058;12.190;2022-09-27T03:53:39;94286.56;;;9.27;100.00
23677;BME280;31493;49.058;12.190;2022-09-27T03:56:09;94279.53;;;9.29;100.00
23677;BME280;31493;49.058;12.190;2022-09-27T03:58:36;94272.03;;;9.26;100.00
23677;BME280;31493;49.058;12.190;2022-09-27T04:01:03;94273.81;;;9.25;100.00
23677;BME280;31493;49.058;12.190;2022-09-27T04:03:30;94273.97;;;9.24;100.00
23677;BME280;31493;49.058;12.190;2022-09-27T04:05:57;94266.88;;;9.26;100.00
23677;BME280;31493;49.058;12.190;2022-09-27T04:08:25;94269.22;;;9.19;100.00
23677;BME280;31493;49.058;12.190;2022-09-27T04:10:52;94271.63;;;9.21;100.00
23677;BME280;31493;49.058;12.190;2022-09-27T04:13:20;94268.78;;;9.24;100.00
23677;BME280;31493;49.058;12.190;2022-09-27T04:15:47;94264.03;;;9.19;100.00
23677;BME280;31493;49.058;12.190;2022-09-27T04:18:14;94276.69;;;9.22;100.00
23677;BME280;31493;49.058;12.190;2022-09-27T04:20:41;94268.94;;;9.12;100.00
23677;BME280;31493;49.058;12.190;2022-09-27T04:23:09;94261.75;;;9.16;100.00
23677;BME280;31493;49.058;12.190;2022-09-27T04:25:36;94272.75;;;9.18;100.00
23677;BME280;31493;49.058;12.190;2022-09-27T04:28:04;94278.88;;;9.17;100.00
23677;BME280;31493;49.058;12.190;2022-09-27T04:30:33;94268.00;;;9.13;100.00
23677;BME280;31493;49.058;12.190;2022-09-27T04:33:00;94271.78;;;9.19;100.00
23677;BME280;31493;49.058;12.190;2022-09-27T04:35:27;94281.31;;;9.19;100.00
23677;BME280;31493;49.058;12.190;2022-09-27T04:38:11;94280.34;;;9.20;100.00
23677;BME280;31493;49.058;12.190;2022-09-27T04:40:39;94270.41;;;9.25;100.00
23677;BME280;31493;49.058;12.190;2022-09-27T04:43:06;94284.28;;;9.24;100.00
23677;BME280;31493;49.058;12.190;2022-09-27T04:45:35;94274.78;;;9.24;100.00
23677;BME280;31493;49.058;12.190;2022-09-27T04:48:02;94268.69;;;9.15;100.00
23677;BME280;31493;49.058;12.190;2022-09-27T04:50:30;94269.22;;;9.19;100.00
23677;BME280;31493;49.058;12.190;2022-09-27T04:52:57;94270.56;;;9.23;100.00
23677;BME280;31493;49.058;12.190;2022-09-27T04:55:24;94270.28;;;9.26;100.00
23677;BME280;31493;49.058;12.190;2022-09-27T04:57:52;94277.75;;;9.29;100.00
23677;BME280;31493;49.058;12.190;2022-09-27T05:00:19;94280.19;;;9.31;100.00
23677;BME280;31493;49.058;12.190;2022-09-27T05:02:48;94274.34;;;9.29;100.00
23677;BME280;31493;49.058;12.190;2022-09-27T05:05:15;94277.50;;;9.23;100.00
23677;BME280;31493;49.058;12.190;2022-09-27T05:07:43;94281.16;;;9.30;100.00
23677;BME280;31493;49.058;12.190;2022-09-27T05:10:10;94291.75;;;9.27;100.00
23677;BME280;31493;49.058;12.190;2022-09-27T05:12:37;94285.34;;;9.31;100.00
23677;BME280;31493;49.058;12.190;2022-09-27T05:15:05;94290.53;;;9.31;100.00
23677;BME280;31493;49.058;12.190;2022-09-27T05:17:32;94282.50;;;9.24;100.00
23677;BME280;31493;49.058;12.190;2022-09-27T05:20:01;94290.81;;;9.28;100.00
23677;BME280;31493;49.058;12.190;2022-09-27T05:22:28;94304.94;;;9.33;100.00
23677;BME280;31493;49.058;12.190;2022-09-27T05:24:55;94284.41;;;9.32;100.00
23677;BME280;31493;49.058;12.190;2022-09-27T05:27:22;94283.44;;;9.33;100.00
23677;BME280;31493;49.058;12.190;2022-09-27T05:29:49;94299.47;;;9.36;100.00
23677;BME280;31493;49.058;12.190;2022-09-27T05:32:17;94286.84;;;9.33;100.00
23677;BME280;31493;49.058;12.190;2022-09-27T05:34:44;94293.91;;;9.31;100.00
23677;BME280;31493;49.058;12.190;2022-09-27T05:37:12;94288.75;;;9.31;100.00
23677;BME280;31493;49.058;12.190;2022-09-27T05:39:40;94295.81;;;9.29;100.00
23677;BME280;31493;49.058;12.190;2022-09-27T05:42:07;94308.59;;;9.31;100.00
23677;BME280;31493;49.058;12.190;2022-09-27T05:44:35;94306.97;;;9.30;100.00
23677;BME280;31493;49.058;12.190;2022-09-27T05:47:03;94301.25;;;9.26;100.00
23677;BME280;31493;49.058;12.190;2022-09-27T05:49:30;94295.00;;;9.29;100.00
23677;BME280;31493;49.058;12.190;2022-09-27T05:51:57;94306.69;;;9.33;100.00
23677;BME280;31493;49.058;12.190;2022-09-27T05:54:26;94288.47;;;9.34;100.00
23677;BME280;31493;49.058;12.190;2022-09-27T05:56:54;94295.66;;;9.40;100.00
23677;BME280;31493;49.058;12.190;2022-09-27T05:59:23;94286.16;;;9.41;100.00
23677;BME280;31493;49.058;12.190;2022-09-27T06:01:51;94316.44;;;9.39;100.00
23677;BME280;31493;49.058;12.190;2022-09-27T06:04:18;94318.09;;;9.40;100.00
23677;BME280;31493;49.058;12.190;2022-09-27T06:06:46;94320.78;;;9.48;100.00
23677;BME280;31493;49.058;12.190;2022-09-27T06:09:14;94307.22;;;9.46;100.00
23677;BME280;31493;49.058;12.190;2022-09-27T06:11:44;94308.44;;;9.42;100.00
23677;BME280;31493;49.058;12.190;2022-09-27T06:14:11;94316.28;;;9.50;100.00
23677;BME280;31493;49.058;12.190;2022-09-27T06:16:38;94322.97;;;9.43;100.00
23677;BME280;31493;49.058;12.190;2022-09-27T06:19:05;94332.22;;;9.46;100.00
23677;BME280;31493;49.058;12.190;2022-09-27T06:21:33;94330.88;;;9.41;100.00
23677;BME280;31493;49.058;12.190;2022-09-27T06:24:00;94331.44;;;9.35;100.00
23677;BME280;31493;49.058;12.190;2022-09-27T06:26:28;94342.81;;;9.33;100.00
23677;BME280;31493;49.058;12.190;2022-09-27T06:28:56;94336.03;;;9.32;100.00
23677;BME280;31493;49.058;12.190;2022-09-27T06:31:23;94350.88;;;9.39;100.00
23677;BME280;31493;49.058;12.190;2022-09-27T06:33:50;94355.34;;;9.37;100.00
23677;BME280;31493;49.058;12.190;2022-09-27T06:36:17;94356.28;;;9.46;100.00
23677;BME280;31493;49.058;12.190;2022-09-27T06:38:44;94356.81;;;9.50;100.00
23677;BME280;31493;49.058;12.190;2022-09-27T06:41:13;94364.56;;;9.50;100.00
23677;BME280;31493;49.058;12.190;2022-09-27T06:43:41;94366.59;;;9.65;100.00
23677;BME280;31493;49.058;12.190;2022-09-27T06:46:09;94364.75;;;9.76;100.00
23677;BME280;31493;49.058;12.190;2022-09-27T06:48:36;94377.88;;;9.64;100.00
23677;BME280;31493;49.058;12.190;2022-09-27T06:51:04;94376.41;;;9.52;100.00
23677;BME280;31493;49.058;12.190;2022-09-27T06:53:31;94385.06;;;9.61;100.00
23677;BME280;31493;49.058;12.190;2022-09-27T06:55:58;94369.56;;;9.61;100.00
23677;BME280;31493;49.058;12.190;2022-09-27T06:58:26;94379.03;;;9.80;100.00
23677;BME280;31493;49.058;12.190;2022-09-27T07:01:12;94378.91;;;9.81;100.00
23677;BME280;31493;49.058;12.190;2022-09-27T07:03:40;94392.25;;;9.77;100.00
23677;BME280;31493;49.058;12.190;2022-09-27T07:06:18;94380.16;;;9.67;100.00
23677;BME280;31493;49.058;12.190;2022-09-27T07:08:49;94379.66;;;9.64;100.00
23677;BME280;31493;49.058;12.190;2022-09-27T07:11:16;94388.88;;;9.76;100.00
23677;BME280;31493;49.058;12.190;2022-09-27T07:13:44;94373.16;;;9.97;100.00
23677;BME280;31493;49.058;12.190;2022-09-27T07:16:13;94385.69;;;9.92;100.00
23677;BME280;31493;49.058;12.190;2022-09-27T07:18:40;94381.16;;;9.94;100.00
23677;BME280;31493;49.058;12.190;2022-09-27T07:21:08;94383.19;;;10.00;100.00
23677;BME280;31493;49.058;12.190;2022-09-27T07:23:37;94387.47;;;9.82;100.00
23677;BME280;31493;49.058;12.190;2022-09-27T07:26:04;94393.19;;;9.85;100.00
23677;BME280;31493;49.058;12.190;2022-09-27T07:28:33;94390.50;;;9.77;100.00
23677;BME280;31493;49.058;12.190;2022-09-27T07:31:01;94391.16;;;9.79;100.00
23677;BME280;31493;49.058;12.190;2022-09-27T07:33:30;94403.56;;;9.66;100.00
23677;BME280;31493;49.058;12.190;2022-09-27T07:35:57;94391.16;;;9.69;100.00
23677;BME280;31493;49.058;12.190;2022-09-27T07:38:25;94390.66;;;9.56;100.00
23677;BME280;31493;49.058;12.190;2022-09-27T07:40:52;94403.16;;;9.61;100.00
23677;BME280;31493;49.058;12.190;2022-09-27T07:43:19;94409.28;;;9.60;100.00
23677;BME280;31493;49.058;12.190;2022-09-27T07:45:46;94413.50;;;9.61;100.00
23677;BME280;31493;49.058;12.190;2022-09-27T07:48:14;94405.03;;;9.68;100.00
23677;BME280;31493;49.058;12.190;2022-09-27T07:50:43;94407.72;;;9.86;100.00
23677;BME280;31493;49.058;12.190;2022-09-27T07:53:10;94411.91;;;9.97;100.00
23677;BME280;31493;49.058;12.190;2022-09-27T07:55:39;94403.50;;;9.95;100.00
23677;BME280;31493;49.058;12.190;2022-09-27T07:58:08;94422.19;;;10.16;100.00
23677;BME280;31493;49.058;12.190;2022-09-27T08:00:37;94429.41;;;10.32;100.00
23677;BME280;31493;49.058;12.190;2022-09-27T08:03:05;94415.94;;;10.29;100.00
23677;BME280;31493;49.058;12.190;2022-09-27T08:05:33;94411.53;;;10.39;100.00
23677;BME280;31493;49.058;12.190;2022-09-27T08:08:02;94406.84;;;10.52;100.00
23677;BME280;31493;49.058;12.190;2022-09-27T08:10:30;94409.53;;;10.33;100.00
23677;BME280;31493;49.058;12.190;2022-09-27T08:12:57;94425.09;;;10.13;100.00
23677;BME280;31493;49.058;12.190;2022-09-27T08:15:24;94433.34;;;10.17;100.00
23677;BME280;31493;49.058;12.190;2022-09-27T08:17:53;94422.81;;;10.01;100.00
23677;BME280;31493;49.058;12.190;2022-09-27T08:20:20;94439.38;;;10.08;100.00
23677;BME280;31493;49.058;12.190;2022-09-27T08:22:48;94436.91;;;10.16;100.00
23677;BME280;31493;49.058;12.190;2022-09-27T08:25:16;94423.88;;;10.08;100.00
23677;BME280;31493;49.058;12.190;2022-09-27T08:27:53;94441.50;;;10.22;100.00
23677;BME280;31493;49.058;12.190;2022-09-27T08:30:21;94446.00;;;10.30;100.00
23677;BME280;31493;49.058;12.190;2022-09-27T08:32:48;94441.41;;;10.23;100.00
23677;BME280;31493;49.058;12.190;2022-09-27T08:35:15;94452.44;;;10.26;100.00
23677;BME280;31493;49.058;12.190;2022-09-27T08:37:42;94454.22;;;10.25;100.00
23677;BME280;31493;49.058;12.190;2022-09-27T08:40:12;94446.03;;;10.20;100.00
23677;BME280;31493;49.058;12.190;2022-09-27T08:42:49;94452.13;;;10.29;100.00
23677;BME280;31493;49.058;12.190;2022-09-27T08:45:25;94445.06;;;10.21;100.00
23677;BME280;31493;49.058;12.190;2022-09-27T08:47:57;94456.78;;;10.15;100.00
23677;BME280;31493;49.058;12.190;2022-09-27T08:50:27;94451.75;;;10.04;100.00
23677;BME280;31493;49.058;12.190;2022-09-27T08:52:57;94463.63;;;10.07;100.00
23677;BME280;31493;49.058;12.190;2022-09-27T08:55:29;94466.56;;;10.21;100.00
23677;BME280;31493;49.058;12.190;2022-09-27T08:57:59;94462.91;;;10.14;100.00
23677;BME280;31493;49.058;12.190;2022-09-27T09:00:28;94466.81;;;10.18;100.00
23677;BME280;31493;49.058;12.190;2022-09-27T09:02:55;94470.66;;;10.14;100.00
23677;BME280;31493;49.058;12.190;2022-09-27T09:05:27;94476.34;;;10.18;100.00
23677;BME280;31493;49.058;12.190;2022-09-27T09:08:07;94483.91;;;10.02;100.00
23677;BME280;31493;49.058;12.190;2022-09-27T09:10:49;94491.13;;;9.88;100.00
23677;BME280;31493;49.058;12.190;2022-09-27T09:13:55;94493.13;;;10.04;100.00
23677;BME280;31493;49.058;12.190;2022-09-27T09:16:34;94490.13;;;9.99;100.00
23677;BME280;31493;49.058;12.190;2022-09-27T09:19:19;94494.75;;;10.15;100.00
23677;BME280;31493;49.058;12.190;2022-09-27T09:21:58;94486.03;;;10.16;100.00
23677;BME280;31493;49.058;12.190;2022-09-27T09:24:36;94492.69;;;10.18;100.00
23677;BME280;31493;49.058;12.190;2022-09-27T09:27:16;94482.38;;;10.09;100.00
23677;BME280;31493;49.058;12.190;2022-09-27T09:30:15;94492.69;;;10.18;100.00
23677;BME280;31493;49.058;12.190;2022-09-27T09:32:56;94478.03;;;10.00;100.00
23677;BME280;31493;49.058;12.190;2022-09-27T09:35:30;94476.94;;;10.02;100.00
23677;BME280;31493;49.058;12.190;2022-09-27T09:38:03;94487.81;;;10.25;100.00
23677;BME280;31493;49.058;12.190;2022-09-27T09:40:37;94493.94;;;10.24;100.00
23677;BME280;31493;49.058;12.190;2022-09-27T09:43:11;94480.97;;;10.34;99.64
23677;BME280;31493;49.058;12.190;2022-09-27T09:45:43;94498.63;;;10.48;98.49
23677;BME280;31493;49.058;12.190;2022-09-27T09:48:18;94488.34;;;10.29;96.29
23677;BME280;31493;49.058;12.190;2022-09-27T09:50:51;94490.50;;;10.33;97.45
23677;BME280;31493;49.058;12.190;2022-09-27T09:53:21;94479.38;;;10.23;97.19
23677;BME280;31493;49.058;12.190;2022-09-27T09:55:51;94489.97;;;10.30;99.00
23677;BME280;31493;49.058;12.190;2022-09-27T09:58:25;94487.03;;;10.52;98.54
23677;BME280;31493;49.058;12.190;2022-09-27T10:00:58;94486.91;;;10.54;99.81
23677;BME280;31493;49.058;12.190;2022-09-27T10:03:26;94483.59;;;10.61;100.00
23677;BME280;31493;49.058;12.190;2022-09-27T10:05:53;94489.56;;;10.34;98.25
23677;BME280;31493;49.058;12.190;2022-09-27T10:08:21;94484.69;;;10.68;99.25
23677;BME280;31493;49.058;12.190;2022-09-27T10:10:49;94492.78;;;10.83;96.70
23677;BME280;31493;49.058;12.190;2022-09-27T10:13:18;94494.22;;;10.95;97.09
23677;BME280;31493;49.058;12.190;2022-09-27T10:15:53;94486.13;;;10.98;95.77
23677;BME280;31493;49.058;12.190;2022-09-27T10:18:22;94477.63;;;10.88;94.15
23677;BME280;31493;49.058;12.190;2022-09-27T10:20:55;94480.69;;;11.01;94.29
23677;BME280;31493;49.058;12.190;2022-09-27T10:23:23;94485.34;;;10.70;92.60
23677;BME280;31493;49.058;12.190;2022-09-27T10:25:53;94479.78;;;10.56;94.29
23677;BME280;31493;49.058;12.190;2022-09-27T10:28:30;94486.06;;;10.63;95.44
23677;BME280;31493;49.058;12.190;2022-09-27T10:31:00;94486.13;;;10.43;95.76
23677;BME280;31493;49.058;12.190;2022-09-27T10:33:30;94503.38;;;10.53;97.64
23677;BME280;31493;49.058;12.190;2022-09-27T10:35:58;94504.03;;;10.55;98.84
23677;BME280;31493;49.058;12.190;2022-09-27T10:38:27;94504.50;;;10.50;98.93
23677;BME280;31493;49.058;12.190;2022-09-27T10:40:57;94495.78;;;10.41;97.56
23677;BME280;31493;49.058;12.190;2022-09-27T10:43:28;94494.81;;;10.42;97.28
23677;BME280;31493;49.058;12.190;2022-09-27T10:46:08;94488.09;;;10.59;96.26
23677;BME280;31493;49.058;12.190;2022-09-27T10:48:39;94490.50;;;10.98;94.52
23677;BME280;31493;49.058;12.190;2022-09-27T10:51:23;94493.00;;;11.35;92.33
23677;BME280;31493;49.058;12.190;2022-09-27T10:53:51;94479.47;;;11.95;89.62
23677;BME280;31493;49.058;12.190;2022-09-27T10:56:23;94483.78;;;11.86;85.60
23677;BME280;31493;49.058;12.190;2022-09-27T10:58:52;94480.59;;;12.18;86.85
23677;BME280;31493;49.058;12.190;2022-09-27T11:01:21;94484.66;;;12.21;87.46
23677;BME280;31493;49.058;12.190;2022-09-27T11:03:52;94489.78;;;11.87;89.01
23677;BME280;31493;49.058;12.190;2022-09-27T11:06:29;94495.47;;;11.54;88.46
23677;BME280;31493;49.058;12.190;2022-09-27T11:09:09;94495.38;;;11.28;87.81
23677;BME280;31493;49.058;12.190;2022-09-27T11:11:43;94498.38;;;11.06;87.78
23677;BME280;31493;49.058;12.190;2022-09-27T11:14:19;94509.41;;;10.81;89.21
23677;BME280;31493;49.058;12.190;2022-09-27T11:17:08;94494.81;;;10.80;90.73
23677;BME280;31493;49.058;12.190;2022-09-27T11:19:54;94513.59;;;10.54;94.25
23677;BME280;31493;49.058;12.190;2022-09-27T11:22:28;94523.66;;;10.57;95.79
23677;BME280;31493;49.058;12.190;2022-09-27T11:25:09;94515.50;;;10.52;99.61
23677;BME280;31493;49.058;12.190;2022-09-27T11:27:48;94510.56;;;10.68;99.10
23677;BME280;31493;49.058;12.190;2022-09-27T11:30:21;94519.50;;;10.74;100.00
23677;BME280;31493;49.058;12.190;2022-09-27T11:33:07;94512.28;;;10.77;97.62
23677;BME280;31493;49.058;12.190;2022-09-27T11:35:47;94503.13;;;11.28;97.12
23677;BME280;31493;49.058;12.190;2022-09-27T11:38:21;94504.66;;;11.84;93.66
23677;BME280;31493;49.058;12.190;2022-09-27T11:41:06;94491.19;;;12.25;90.13
23677;BME280;31493;49.058;12.190;2022-09-27T11:43:47;94501.56;;;12.25;92.69
23677;BME280;31493;49.058;12.190;2022-09-27T11:46:22;94507.88;;;11.33;92.50
23677;BME280;31493;49.058;12.190;2022-09-27T11:49:19;94500.75;;;10.99;94.11
23677;BME280;31493;49.058;12.190;2022-09-27T11:52:02;94484.09;;;11.02;93.82
23677;BME280;31493;49.058;12.190;2022-09-27T11:54:45;94502.19;;;11.65;93.46
23677;BME280;31493;49.058;12.190;2022-09-27T11:57:21;94493.00;;;12.32;89.83
23677;BME280;31493;49.058;12.190;2022-09-27T12:00:03;94485.47;;;12.81;88.80
23677;BME280;31493;49.058;12.190;2022-09-27T12:02:49;94491.69;;;11.84;88.52
23677;BME280;31493;49.058;12.190;2022-09-27T12:05:35;94484.78;;;11.57;91.67
23677;BME280;31493;49.058;12.190;2022-09-27T12:08:24;94484.41;;;11.52;91.95
23677;BME280;31493;49.058;12.190;2022-09-27T12:10:59;94482.09;;;11.14;91.43
23677;BME280;31493;49.058;12.190;2022-09-27T12:13:36;94486.53;;;11.03;93.26
23677;BME280;31493;49.058;12.190;2022-09-27T12:16:04;94485.94;;;11.10;94.16
23677;BME280;31493;49.058;12.190;2022-09-27T12:18:35;94487.28;;;11.14;93.19
23677;BME280;31493;49.058;12.190;2022-09-27T12:21:05;94490.47;;;11.97;91.39
23677;BME280;31493;49.058;12.190;2022-09-27T12:23:38;94492.66;;;11.83;90.50
23677;BME280;31493;49.058;12.190;2022-09-27T12:26:09;94491.38;;;11.52;88.96
23677;BME280;31493;49.058;12.190;2022-09-27T12:28:43;94486.41;;;11.58;89.56
23677;BME280;31493;49.058;12.190;2022-09-27T12:31:15;94477.34;;;11.54;86.44
23677;BME280;31493;49.058;12.190;2022-09-27T12:33:48;94481.31;;;11.31;85.44
23677;BME280;31493;49.058;12.190;2022-09-27T12:36:19;94476.94;;;11.32;85.42
23677;BME280;31493;49.058;12.190;2022-09-27T12:38:55;94482.28;;;11.30;86.17
23677;BME280;31493;49.058;12.190;2022-09-27T12:41:30;94490.19;;;11.64;84.75
23677;BME280;31493;49.058;12.190;2022-09-27T12:44:00;94481.63;;;11.81;84.02
23677;BME280;31493;49.058;12.190;2022-09-27T12:46:35;94474.47;;;12.01;81.99
23677;BME280;31493;49.058;12.190;2022-09-27T12:49:13;94485.38;;;12.05;82.43
23677;BME280;31493;49.058;12.190;2022-09-27T12:51:45;94462.59;;;12.17;83.35
23677;BME280;31493;49.058;12.190;2022-09-27T12:54:52;94458.19;;;12.43;79.97
23677;BME280;31493;49.058;12.190;2022-09-27T12:57:33;94474.56;;;12.09;78.61
23677;BME280;31493;49.058;12.190;2022-09-27T13:00:10;94457.19;;;12.36;77.92
23677;BME280;31493;49.058;12.190;2022-09-27T13:02:56;94461.13;;;12.40;77.63
23677;BME280;31493;49.058;12.190;2022-09-27T13:05:49;94457.28;;;12.95;75.49
23677;BME280;31493;49.058;12.190;2022-09-27T13:08:29;94468.44;;;13.21;76.55
23677;BME280;31493;49.058;12.190;2022-09-27T13:11:08;94472.03;;;12.94;77.08
23677;BME280;31493;49.058;12.190;2022-09-27T13:13:40;94475.09;;;13.24;75.81
23677;BME280;31493;49.058;12.190;2022-09-27T13:16:08;94464.31;;;13.10;77.70